createdAt,value
2017-04-15T00:00:33.975Z,55.30
2017-04-15T00:01:34.551Z,55.60
2017-04-15T00:02:34.363Z,55.40
2017-04-15T00:03:34.183Z,55.50
2017-04-15T00:04:34.103Z,55.20
2017-04-15T00:05:34.771Z,55.40
2017-04-15T00:06:35.231Z,55.00
2017-04-15T00:07:35.505Z,55.30
2017-04-15T00:08:35.967Z,55.20
2017-04-15T00:09:36.931Z,55.30
2017-04-15T00:10:36.727Z,55.20
2017-04-15T00:11:36.758Z,55.30
2017-04-15T00:12:36.567Z,55.40
2017-04-15T00:13:36.347Z,55.10
2017-04-15T00:14:36.127Z,55.30
2017-04-15T00:15:36.670Z,55.30
2017-04-15T00:16:36.440Z,55.50
2017-04-15T00:17:36.979Z,55.60
2017-04-15T00:18:36.739Z,55.30
2017-04-15T00:19:36.523Z,55.90
2017-04-15T00:20:36.330Z,55.80
2017-04-15T00:21:36.103Z,55.90
2017-04-15T00:22:35.863Z,55.80
2017-04-15T00:23:35.627Z,55.90
2017-04-15T00:24:35.507Z,56.00
2017-04-15T00:25:35.279Z,56.00
2017-04-15T00:26:35.054Z,56.40
2017-04-15T00:27:34.887Z,55.80
2017-04-15T00:28:34.691Z,55.80
2017-04-15T00:29:34.563Z,55.70
2017-04-15T00:30:34.383Z,55.80
2017-04-15T00:31:34.939Z,55.80
2017-04-15T00:32:35.004Z,55.80
2017-04-15T00:33:34.796Z,55.70
2017-04-15T00:34:34.562Z,56.00
2017-04-15T00:35:35.579Z,56.10
2017-04-15T00:36:35.384Z,56.10
2017-04-15T00:37:35.152Z,56.20
2017-04-15T00:38:35.663Z,56.20
2017-04-15T00:39:35.446Z,56.10
2017-04-15T00:40:35.682Z,56.10
2017-04-15T00:41:35.434Z,56.10
2017-04-15T00:42:35.239Z,56.10
2017-04-15T00:43:35.049Z,56.10
2017-04-15T00:44:34.859Z,55.90
2017-04-15T00:45:34.667Z,55.90
2017-04-15T00:46:34.482Z,56.00
2017-04-15T00:47:34.383Z,55.90
2017-04-15T00:48:34.914Z,56.00
2017-04-15T00:49:34.757Z,56.10
2017-04-15T00:50:34.495Z,56.20
2017-04-15T00:51:35.031Z,56.50
2017-04-15T00:52:34.808Z,56.60
2017-04-15T00:53:34.642Z,56.60
2017-04-15T00:54:34.439Z,56.50
2017-04-15T00:55:35.051Z,57.20
2017-04-15T00:56:35.578Z,56.40
2017-04-15T00:57:36.126Z,56.30
2017-04-15T00:58:36.090Z,56.40
2017-04-15T00:59:36.602Z,56.20
2017-04-15T01:00:36.382Z,56.40
2017-04-15T01:01:36.134Z,55.60
2017-04-15T01:02:35.899Z,55.70
2017-04-15T01:04:35.670Z,55.80
2017-04-15T01:05:35.442Z,56.00
2017-04-15T01:06:35.674Z,56.00
2017-04-15T01:07:35.498Z,55.80
2017-04-15T01:08:35.266Z,55.70
2017-04-15T01:09:35.139Z,55.80
2017-04-15T01:10:34.930Z,55.90
2017-04-15T01:11:34.676Z,55.70
2017-04-15T01:12:34.462Z,55.90
2017-04-15T01:13:41.682Z,55.90
2017-04-15T01:14:41.482Z,55.80
2017-04-15T01:15:41.245Z,55.90
2017-04-15T01:16:41.058Z,56.00
2017-04-15T01:17:40.898Z,55.90
2017-04-15T01:18:40.659Z,56.00
2017-04-15T01:19:41.057Z,56.00
2017-04-15T01:20:41.037Z,55.90
2017-04-15T01:21:40.933Z,55.60
2017-04-15T01:22:40.702Z,55.40
2017-04-15T01:23:41.062Z,55.20
2017-04-15T01:24:40.913Z,55.40
2017-04-15T01:25:41.422Z,55.40
2017-04-15T01:26:41.194Z,55.50
2017-04-15T01:27:41.718Z,55.50
2017-04-15T01:28:41.494Z,56.00
2017-04-15T01:29:41.353Z,55.10
2017-04-15T01:30:41.174Z,55.10
2017-04-15T01:31:40.961Z,55.30
2017-04-15T01:32:40.698Z,55.20
2017-04-15T01:33:40.481Z,55.30
2017-04-15T01:34:40.277Z,55.10
2017-04-15T01:35:40.086Z,55.00
2017-04-15T01:36:39.850Z,54.80
2017-04-15T01:37:39.650Z,54.90
2017-04-15T01:38:39.469Z,54.70
2017-04-15T01:39:39.249Z,54.60
2017-04-15T01:40:39.070Z,54.60
2017-04-15T01:41:39.545Z,54.40
2017-04-15T01:42:39.354Z,54.60
2017-04-15T01:43:39.155Z,54.90
2017-04-15T01:44:39.661Z,54.70
2017-04-15T01:45:39.413Z,54.60
2017-04-15T01:46:39.182Z,54.70
2017-04-15T01:47:39.729Z,54.90
2017-04-15T01:48:39.530Z,54.90
2017-04-15T01:49:39.275Z,55.00
2017-04-15T01:51:39.098Z,54.60
2017-04-15T01:52:39.589Z,54.70
2017-04-15T01:53:39.385Z,54.90
2017-04-15T01:54:39.125Z,54.70
2017-04-15T01:55:39.661Z,54.80
2017-04-15T01:56:39.433Z,55.10
2017-04-15T01:57:39.914Z,55.10
2017-04-15T01:58:39.685Z,54.90
2017-04-15T01:59:39.761Z,54.80
2017-04-15T02:00:39.541Z,54.70
2017-04-15T02:02:40.123Z,54.20
2017-04-15T02:03:40.622Z,54.20
2017-04-15T02:04:40.414Z,54.00
2017-04-15T02:05:40.153Z,54.20
2017-04-15T02:06:40.573Z,54.20
2017-04-15T02:07:40.346Z,54.00
2017-04-15T02:08:40.082Z,54.30
2017-04-15T02:09:39.873Z,54.10
2017-04-15T02:10:39.645Z,53.80
2017-04-15T02:11:39.413Z,53.90
2017-04-15T02:12:39.217Z,53.80
2017-04-15T02:13:39.049Z,53.80
2017-04-15T02:14:38.813Z,53.60
2017-04-15T02:15:38.661Z,53.70
2017-04-15T02:16:38.647Z,53.60
2017-04-15T02:17:39.210Z,53.70
2017-04-15T02:18:38.973Z,53.60
2017-04-15T02:19:38.741Z,53.80
2017-04-15T02:20:38.569Z,53.60
2017-04-15T02:21:39.065Z,53.80
2017-04-15T02:22:38.893Z,53.80
2017-04-15T02:23:38.645Z,53.90
2017-04-15T02:24:38.405Z,54.20
2017-04-15T02:25:38.178Z,54.10
2017-04-15T02:26:37.992Z,54.20
2017-04-15T02:27:37.749Z,53.80
2017-04-15T02:28:37.489Z,53.90
2017-04-15T02:29:37.250Z,54.00
2017-04-15T02:30:37.021Z,53.80
2017-04-15T02:31:36.780Z,53.70
2017-04-15T02:32:36.557Z,53.50
2017-04-15T02:33:36.329Z,53.50
2017-04-15T02:34:36.125Z,53.60
2017-04-15T02:35:35.857Z,53.00
2017-04-15T02:36:35.632Z,53.70
2017-04-15T02:37:35.509Z,53.70
2017-04-15T02:38:36.001Z,53.60
2017-04-15T02:39:35.845Z,53.60
2017-04-15T02:40:35.645Z,53.70
2017-04-15T02:41:35.416Z,53.70
2017-04-15T02:42:35.226Z,53.90
2017-04-15T02:43:35.014Z,54.10
2017-04-15T02:44:34.797Z,54.30
2017-04-15T02:45:34.657Z,53.90
2017-04-15T02:46:34.889Z,54.10
2017-04-15T02:47:34.657Z,54.10
2017-04-15T02:48:34.429Z,54.00
2017-04-15T02:49:34.961Z,54.10
2017-04-15T02:50:34.774Z,54.20
2017-04-15T02:51:34.553Z,54.50
2017-04-15T02:52:34.317Z,54.40
2017-04-15T02:53:34.122Z,54.40
2017-04-15T02:54:34.004Z,54.40
2017-04-15T02:55:33.824Z,54.50
2017-04-15T02:56:33.609Z,54.40
2017-04-15T02:57:33.416Z,54.60
2017-04-15T02:58:33.179Z,54.50
2017-04-15T02:59:32.948Z,54.40
2017-04-15T03:00:32.700Z,54.50
2017-04-15T03:01:32.484Z,54.60
2017-04-15T03:02:32.388Z,54.50
2017-04-15T03:03:32.901Z,54.70
2017-04-15T03:04:32.849Z,54.80
2017-04-15T03:05:32.592Z,55.00
2017-04-15T03:06:32.380Z,55.10
2017-04-15T03:07:32.220Z,55.20
2017-04-15T03:08:32.729Z,55.30
2017-04-15T03:09:32.468Z,55.30
2017-04-15T03:10:32.416Z,55.10
2017-04-15T03:11:32.356Z,55.00
2017-04-15T03:12:32.116Z,55.10
2017-04-15T03:13:31.880Z,55.10
2017-04-15T03:14:31.650Z,55.20
2017-04-15T03:15:31.381Z,55.10
2017-04-15T03:16:31.128Z,55.10
2017-04-15T03:17:30.920Z,55.10
2017-04-15T03:18:30.698Z,55.00
2017-04-15T03:19:30.429Z,55.00
2017-04-15T03:20:30.200Z,55.00
2017-04-15T03:21:30.188Z,55.20
2017-04-15T03:22:29.956Z,55.10
2017-04-15T03:23:30.728Z,55.10
2017-04-15T03:24:30.540Z,55.00
2017-04-15T03:25:30.297Z,55.30
2017-04-15T03:26:30.033Z,55.20
2017-04-15T03:27:29.788Z,55.00
2017-04-15T03:28:29.552Z,55.20
2017-04-15T03:29:29.351Z,55.50
2017-04-15T03:30:29.120Z,55.50
2017-04-15T03:31:28.896Z,55.50
2017-04-15T03:32:29.417Z,55.40
2017-04-15T03:33:29.972Z,55.40
2017-04-15T03:34:29.795Z,55.50
2017-04-15T03:35:29.576Z,55.50
2017-04-15T03:36:29.351Z,55.80
2017-04-15T03:37:29.151Z,55.70
2017-04-15T03:38:28.901Z,56.10
2017-04-15T03:39:28.668Z,55.60
2017-04-15T03:40:28.480Z,55.80
2017-04-15T03:41:28.440Z,55.80
2017-04-15T03:42:28.244Z,55.50
2017-04-15T03:43:28.756Z,55.80
2017-04-15T03:44:28.507Z,56.00
2017-04-15T03:45:28.392Z,55.90
2017-04-15T03:46:28.144Z,55.90
2017-04-15T03:47:27.929Z,55.70
2017-04-15T03:48:27.672Z,55.60
2017-04-15T03:49:28.196Z,55.90
2017-04-15T03:50:28.775Z,56.10
2017-04-15T03:51:28.532Z,56.00
2017-04-15T03:52:28.924Z,56.20
2017-04-15T03:53:29.436Z,56.40
2017-04-15T03:54:29.204Z,56.30
2017-04-15T03:55:29.019Z,56.20
2017-04-15T03:56:29.012Z,56.20
2017-04-15T03:57:28.808Z,56.20
2017-04-15T03:58:28.607Z,56.40
2017-04-15T03:59:28.387Z,56.50
2017-04-15T04:00:28.251Z,56.70
2017-04-15T04:01:28.040Z,56.80
2017-04-15T04:02:27.808Z,56.80
2017-04-15T04:03:27.607Z,56.50
2017-04-15T04:04:27.512Z,56.50
2017-04-15T04:05:27.999Z,56.50
2017-04-15T04:06:27.787Z,56.60
2017-04-15T04:07:28.331Z,56.70
2017-04-15T04:08:28.104Z,56.90
2017-04-15T04:09:27.927Z,56.90
2017-04-15T04:10:27.755Z,57.00
2017-04-15T04:11:27.535Z,57.00
2017-04-15T04:12:27.332Z,56.90
2017-04-15T04:13:27.152Z,56.90
2017-04-15T04:14:26.915Z,57.00
2017-04-15T04:15:27.451Z,57.00
2017-04-15T04:16:27.220Z,57.00
2017-04-15T04:17:27.123Z,56.90
2017-04-15T04:18:26.881Z,57.10
2017-04-15T04:19:26.639Z,57.30
2017-04-15T04:20:27.205Z,57.90
2017-04-15T04:21:26.987Z,57.50
2017-04-15T04:22:26.819Z,57.50
2017-04-15T04:23:26.595Z,57.40
2017-04-15T04:24:26.411Z,57.40
2017-04-15T04:25:26.147Z,56.90
2017-04-15T04:26:25.939Z,57.30
2017-04-15T04:27:25.732Z,57.30
2017-04-15T04:28:25.507Z,57.10
2017-04-15T04:29:25.296Z,57.10
2017-04-15T04:30:25.067Z,57.90
2017-04-15T04:31:24.840Z,57.30
2017-04-15T04:32:24.619Z,57.30
2017-04-15T04:33:24.387Z,57.40
2017-04-15T04:34:24.163Z,57.40
2017-04-15T04:35:23.875Z,57.40
2017-04-15T04:36:24.367Z,57.60
2017-04-15T04:37:24.155Z,57.60
2017-04-15T04:38:23.919Z,57.70
2017-04-15T04:39:23.711Z,58.30
2017-04-15T04:40:23.483Z,57.70
2017-04-15T04:41:23.559Z,58.00
2017-04-15T04:42:23.299Z,58.10
2017-04-15T04:43:23.063Z,58.00
2017-04-15T04:44:22.831Z,58.10
2017-04-15T04:45:22.579Z,58.20
2017-04-15T04:46:22.360Z,58.10
2017-04-15T04:47:22.119Z,58.30
2017-04-15T04:48:22.626Z,58.40
2017-04-15T04:49:22.383Z,58.40
2017-04-15T04:50:22.187Z,58.40
2017-04-15T04:51:21.927Z,58.50
2017-04-15T04:52:21.707Z,58.50
2017-04-15T04:53:21.814Z,58.50
2017-04-15T04:54:21.563Z,58.30
2017-04-15T04:55:21.311Z,58.30
2017-04-15T04:56:21.091Z,58.50
2017-04-15T04:57:20.835Z,58.60
2017-04-15T04:58:20.606Z,58.60
2017-04-15T04:59:20.399Z,58.50
2017-04-15T05:00:20.195Z,58.50
2017-04-15T05:01:20.014Z,58.40
2017-04-15T05:02:19.795Z,58.40
2017-04-15T05:03:19.960Z,58.60
2017-04-15T05:04:20.500Z,59.30
2017-04-15T05:05:20.286Z,58.70
2017-04-15T05:06:20.767Z,58.60
2017-04-15T05:07:20.927Z,58.60
2017-04-15T05:08:20.703Z,58.20
2017-04-15T05:09:20.495Z,58.80
2017-04-15T05:10:20.355Z,58.70
2017-04-15T05:11:20.110Z,58.70
2017-04-15T05:12:19.902Z,58.50
2017-04-15T05:13:19.678Z,58.60
2017-04-15T05:14:19.471Z,58.70
2017-04-15T05:15:19.270Z,58.70
2017-04-15T05:16:19.066Z,58.60
2017-04-15T05:17:18.842Z,58.70
2017-04-15T05:18:19.159Z,58.80
2017-04-15T05:19:19.043Z,58.70
2017-04-15T05:20:19.603Z,58.80
2017-04-15T05:21:19.395Z,58.90
2017-04-15T05:22:19.170Z,58.90
2017-04-15T05:23:19.666Z,59.00
2017-04-15T05:24:19.418Z,59.00
2017-04-15T05:25:19.183Z,59.10
2017-04-15T05:26:18.947Z,59.20
2017-04-15T05:27:19.138Z,59.30
2017-04-15T05:28:18.911Z,59.20
2017-04-15T05:29:18.713Z,59.20
2017-04-15T05:30:18.494Z,59.00
2017-04-15T05:31:18.262Z,58.90
2017-04-15T05:32:19.938Z,58.80
2017-04-15T05:33:19.703Z,58.80
2017-04-15T05:34:19.455Z,58.90
2017-04-15T05:35:19.998Z,59.00
2017-04-15T05:36:19.747Z,59.00
2017-04-15T05:37:19.514Z,59.00
2017-04-15T05:38:19.239Z,59.00
2017-04-15T05:39:19.039Z,59.00
2017-04-15T05:40:18.778Z,59.00
2017-04-15T05:41:18.565Z,58.90
2017-04-15T05:42:18.327Z,58.90
2017-04-15T05:43:18.083Z,58.80
2017-04-15T05:44:17.859Z,59.10
2017-04-15T05:45:17.614Z,59.10
2017-04-15T05:46:17.423Z,59.20
2017-04-15T05:47:17.182Z,59.00
2017-04-15T05:48:17.702Z,59.10
2017-04-15T05:49:18.196Z,59.00
2017-04-15T05:50:17.966Z,59.10
2017-04-15T05:51:17.747Z,59.10
2017-04-15T05:52:17.534Z,59.10
2017-04-15T05:53:17.294Z,59.80
2017-04-15T05:54:17.086Z,59.20
2017-04-15T05:55:16.881Z,59.10
2017-04-15T05:56:16.662Z,59.20
2017-04-15T05:57:16.429Z,59.20
2017-04-15T05:58:16.252Z,59.80
2017-04-15T05:59:15.982Z,59.20
2017-04-15T06:00:16.026Z,59.20
2017-04-15T06:01:15.765Z,59.30
2017-04-15T06:02:15.506Z,59.20
2017-04-15T06:03:15.565Z,59.10
2017-04-15T06:04:15.346Z,59.00
2017-04-15T06:05:15.118Z,58.80
2017-04-15T06:06:14.895Z,58.80
2017-04-15T06:07:14.641Z,58.90
2017-04-15T06:08:15.170Z,59.00
2017-04-15T06:09:15.662Z,58.80
2017-04-15T06:10:15.518Z,58.70
2017-04-15T06:11:15.282Z,59.10
2017-04-15T06:12:15.789Z,59.10
2017-04-15T06:13:16.634Z,59.00
2017-04-15T06:14:16.373Z,58.90
2017-04-15T06:15:16.142Z,57.50
2017-04-15T06:16:15.922Z,56.70
2017-04-15T06:17:15.705Z,57.80
2017-04-15T06:18:15.446Z,58.20
2017-04-15T06:19:15.218Z,58.40
2017-04-15T06:20:14.966Z,58.20
2017-04-15T06:21:14.710Z,58.20
2017-04-15T06:22:14.514Z,58.10
2017-04-15T06:23:14.273Z,57.10
2017-04-15T06:24:14.034Z,57.00
2017-04-15T06:25:13.785Z,56.80
2017-04-15T06:26:13.545Z,56.60
2017-04-15T06:27:13.350Z,56.60
2017-04-15T06:28:13.129Z,56.10
2017-04-15T06:30:25.234Z,56.00
2017-04-15T06:31:25.761Z,56.30
2017-04-15T06:32:26.273Z,55.80
2017-04-15T06:33:26.782Z,56.40
2017-04-15T06:34:26.549Z,55.40
2017-04-15T06:35:26.382Z,55.70
2017-04-15T06:36:26.141Z,55.80
2017-04-15T06:37:25.913Z,55.40
2017-04-15T06:38:25.694Z,55.30
2017-04-15T06:39:26.213Z,54.90
2017-04-15T06:40:27.038Z,54.00
2017-04-15T06:41:26.809Z,54.00
2017-04-15T06:42:26.694Z,54.00
2017-04-15T06:43:26.430Z,54.00
2017-04-15T06:44:26.201Z,53.90
2017-04-15T06:45:25.966Z,53.90
2017-04-15T06:46:25.734Z,53.30
2017-04-15T06:47:25.522Z,52.70
2017-04-15T06:48:25.279Z,52.80
2017-04-15T06:49:25.017Z,52.40
2017-04-15T06:50:24.757Z,51.70
2017-04-15T06:51:25.303Z,51.20
2017-04-15T06:52:25.025Z,51.80
2017-04-15T06:53:24.797Z,52.00
2017-04-15T06:54:24.773Z,52.50
2017-04-15T06:55:24.525Z,52.40
2017-04-15T06:56:25.082Z,51.80
2017-04-15T06:57:25.698Z,52.20
2017-04-15T06:58:26.433Z,52.50
2017-04-15T06:59:26.209Z,51.60
2017-04-15T07:00:25.990Z,51.60
2017-04-15T07:01:25.769Z,51.90
2017-04-15T07:02:26.657Z,52.30
2017-04-15T07:03:27.293Z,52.10
2017-04-15T07:04:27.836Z,51.50
2017-04-15T07:05:27.609Z,51.80
2017-04-15T07:06:27.381Z,51.70
2017-04-15T07:07:27.153Z,51.30
2017-04-15T07:08:26.909Z,50.80
2017-04-15T07:09:26.664Z,51.20
2017-04-15T07:10:26.421Z,51.60
2017-04-15T07:11:26.933Z,51.30
2017-04-15T07:12:26.713Z,50.90
2017-04-15T07:13:26.461Z,50.70
2017-04-15T07:14:26.229Z,50.10
2017-04-15T07:15:26.021Z,50.20
2017-04-15T07:17:25.777Z,49.30
2017-04-15T07:18:25.650Z,48.80
2017-04-15T07:19:26.145Z,48.40
2017-04-15T07:20:25.901Z,48.30
2017-04-15T07:21:26.012Z,48.00
2017-04-15T07:22:25.765Z,47.40
2017-04-15T07:23:26.385Z,47.40
2017-04-15T07:24:26.149Z,46.80
2017-04-15T07:25:26.153Z,47.00
2017-04-15T07:26:25.942Z,46.70
2017-04-15T07:27:25.713Z,45.60
2017-04-15T07:28:25.489Z,45.20
2017-04-15T07:29:25.261Z,45.10
2017-04-15T07:30:25.033Z,44.80
2017-04-15T07:31:24.788Z,43.50
2017-04-15T07:32:24.545Z,43.20
2017-04-15T07:33:24.321Z,43.40
2017-04-15T07:34:24.297Z,43.10
2017-04-15T07:35:24.019Z,42.60
2017-04-15T07:36:24.537Z,43.30
2017-04-15T07:37:24.332Z,43.00
2017-04-15T07:38:24.317Z,42.40
2017-04-15T07:40:24.089Z,42.50
2017-04-15T07:41:23.865Z,43.30
2017-04-15T07:42:23.640Z,43.50
2017-04-15T07:43:23.417Z,42.80
2017-04-15T07:44:23.213Z,42.60
2017-04-15T07:45:23.013Z,42.40
2017-04-15T07:46:22.768Z,44.00
2017-04-15T07:47:22.564Z,44.50
2017-04-15T07:48:22.341Z,44.10
2017-04-15T07:49:22.108Z,43.80
2017-04-15T07:50:21.944Z,43.80
2017-04-15T07:51:21.713Z,43.90
2017-04-15T07:52:21.552Z,43.90
2017-04-15T07:53:21.333Z,44.00
2017-04-15T07:54:21.097Z,44.00
2017-04-15T07:55:20.924Z,43.50
2017-04-15T07:56:20.708Z,43.80
2017-04-15T07:57:20.492Z,44.20
2017-04-15T07:58:20.261Z,44.40
2017-04-15T07:59:20.037Z,44.20
2017-04-15T08:00:20.988Z,43.90
2017-04-15T08:01:21.816Z,43.80
2017-04-15T08:02:21.588Z,43.30
2017-04-15T08:03:21.384Z,43.30
2017-04-15T08:04:21.160Z,43.20
2017-04-15T08:05:20.947Z,42.90
2017-04-15T08:06:19.920Z,43.40
2017-04-15T08:07:19.684Z,43.40
2017-04-15T08:08:19.468Z,43.40
2017-04-15T08:09:19.668Z,43.00
2017-04-15T08:10:19.444Z,43.00
2017-04-15T08:11:19.233Z,43.60
2017-04-15T08:12:19.012Z,44.30
2017-04-15T08:13:18.816Z,44.30
2017-04-15T08:14:18.561Z,44.00
2017-04-15T08:15:18.288Z,43.50
2017-04-15T08:16:18.044Z,42.80
2017-04-15T08:17:17.837Z,42.40
2017-04-15T08:18:18.337Z,42.10
2017-04-15T08:19:18.112Z,42.40
2017-04-15T08:20:18.104Z,43.10
2017-04-15T08:21:17.904Z,42.90
2017-04-15T08:22:17.656Z,42.70
2017-04-15T08:23:17.448Z,42.80
2017-04-15T08:24:17.837Z,44.30
2017-04-15T08:25:17.596Z,44.10
2017-04-15T08:26:17.368Z,44.40
2017-04-15T08:27:17.160Z,44.10
2017-04-15T08:28:16.924Z,43.90
2017-04-15T08:29:16.696Z,42.80
2017-04-15T08:30:17.284Z,43.00
2017-04-15T08:31:17.072Z,43.00
2017-04-15T08:32:16.860Z,42.80
2017-04-15T08:33:16.612Z,43.10
2017-04-15T08:34:17.164Z,42.50
2017-04-15T08:35:16.935Z,42.50
2017-04-15T08:36:16.703Z,42.30
2017-04-15T08:37:16.460Z,42.10
2017-04-15T08:38:16.228Z,42.10
2017-04-15T08:39:15.993Z,42.10
2017-04-15T08:40:15.751Z,41.80
2017-04-15T08:41:15.520Z,41.40
2017-04-15T08:42:15.684Z,41.60
2017-04-15T08:43:15.556Z,42.10
2017-04-15T08:44:15.348Z,42.10
2017-04-15T08:45:15.872Z,42.10
2017-04-15T08:46:16.376Z,41.80
2017-04-15T08:47:16.140Z,41.90
2017-04-15T08:48:16.451Z,41.70
2017-04-15T08:49:16.247Z,42.20
2017-04-15T08:50:16.024Z,42.20
2017-04-15T08:51:15.824Z,42.40
2017-04-15T08:52:15.603Z,42.60
2017-04-15T08:53:16.132Z,42.30
2017-04-15T08:54:16.620Z,42.10
2017-04-15T08:56:16.356Z,41.50
2017-04-15T08:57:16.865Z,41.90
2017-04-15T08:58:16.747Z,41.90
2017-04-15T08:59:16.523Z,41.60
2017-04-15T09:00:16.300Z,41.50
2017-04-15T09:01:16.060Z,41.60
2017-04-15T09:02:15.888Z,41.90
2017-04-15T09:03:15.675Z,42.30
2017-04-15T09:04:16.199Z,41.90
2017-04-15T09:05:15.976Z,41.70
2017-04-15T09:06:15.739Z,41.70
2017-04-15T09:07:15.515Z,42.10
2017-04-15T09:08:15.323Z,42.30
2017-04-15T09:09:15.095Z,43.00
2017-04-15T09:10:14.879Z,42.90
2017-04-15T09:11:14.659Z,43.20
2017-04-15T09:12:14.451Z,42.90
2017-04-15T09:13:14.244Z,43.30
2017-04-15T09:14:14.340Z,43.70
2017-04-15T09:15:14.098Z,44.30
2017-04-15T09:16:13.859Z,44.10
2017-04-15T09:17:13.612Z,44.20
2017-04-15T09:18:13.785Z,44.30
2017-04-15T09:19:13.551Z,44.10
2017-04-15T09:20:13.344Z,44.40
2017-04-15T09:21:13.123Z,44.80
2017-04-15T09:22:12.987Z,44.30
2017-04-15T09:23:12.723Z,44.80
2017-04-15T09:24:12.503Z,45.20
2017-04-15T09:25:12.255Z,45.20
2017-04-15T09:26:12.011Z,44.00
2017-04-15T09:27:11.812Z,44.10
2017-04-15T09:28:11.611Z,44.50
2017-04-15T09:29:11.376Z,45.00
2017-04-15T09:30:11.227Z,45.00
2017-04-15T09:31:11.727Z,44.50
2017-04-15T09:32:11.467Z,44.60
2017-04-15T09:33:12.004Z,45.10
2017-04-15T09:34:11.767Z,45.80
2017-04-15T09:35:12.311Z,45.00
2017-04-15T09:36:12.075Z,44.80
2017-04-15T09:37:11.843Z,44.80
2017-04-15T09:38:11.631Z,44.40
2017-04-15T09:39:11.375Z,44.40
2017-04-15T09:40:11.139Z,44.20
2017-04-15T09:41:10.911Z,44.20
2017-04-15T09:42:11.455Z,44.10
2017-04-15T09:43:11.243Z,43.90
2017-04-15T09:44:11.032Z,44.80
2017-04-15T09:45:11.567Z,44.10
2017-04-15T09:46:11.407Z,44.00
2017-04-15T09:47:11.143Z,44.10
2017-04-15T09:48:11.831Z,43.80
2017-04-15T09:49:11.611Z,44.20
2017-04-15T09:50:11.503Z,44.90
2017-04-15T09:51:11.287Z,45.30
2017-04-15T09:52:11.783Z,45.30
2017-04-15T09:53:11.659Z,45.50
2017-04-15T09:54:11.430Z,45.70
2017-04-15T09:55:11.208Z,45.40
2017-04-15T09:56:11.715Z,45.40
2017-04-15T09:57:12.247Z,45.20
2017-04-15T09:58:12.791Z,45.00
2017-04-15T09:59:12.574Z,45.00
2017-04-15T10:00:12.367Z,44.70
2017-04-15T10:01:12.939Z,45.00
2017-04-15T10:02:12.754Z,45.30
2017-04-15T10:03:12.542Z,45.10
2017-04-15T10:04:12.347Z,45.50
2017-04-15T10:05:12.127Z,45.90
2017-04-15T10:06:11.914Z,46.20
2017-04-15T10:07:11.715Z,46.00
2017-04-15T10:08:12.567Z,46.10
2017-04-15T10:09:12.378Z,45.40
2017-04-15T10:10:13.582Z,45.50
2017-04-15T10:11:13.514Z,45.70
2017-04-15T10:12:13.419Z,46.30
2017-04-15T10:13:19.606Z,46.30
2017-04-15T10:14:20.547Z,46.80
2017-04-15T10:15:21.083Z,46.50
2017-04-15T10:16:20.855Z,46.50
2017-04-15T10:17:20.638Z,45.70
2017-04-15T10:18:20.407Z,45.60
2017-04-15T10:19:20.158Z,45.60
2017-04-15T10:20:19.938Z,45.70
2017-04-15T10:21:19.695Z,45.60
2017-04-15T10:22:19.430Z,46.20
2017-04-15T10:23:19.185Z,45.30
2017-04-15T10:24:18.963Z,45.60
2017-04-15T10:25:18.810Z,45.60
2017-04-15T10:26:19.315Z,45.60
2017-04-15T10:27:19.074Z,45.40
2017-04-15T10:28:21.355Z,45.00
2017-04-15T10:29:22.066Z,44.80
2017-04-15T10:30:21.839Z,44.60
2017-04-15T10:31:21.619Z,45.70
2017-04-15T10:32:21.398Z,46.00
2017-04-15T10:33:21.150Z,45.00
2017-04-15T10:34:20.895Z,44.90
2017-04-15T10:35:20.670Z,44.60
2017-04-15T10:36:20.466Z,45.10
2017-04-15T10:37:20.994Z,45.00
2017-04-15T10:38:20.754Z,45.00
2017-04-15T10:39:20.531Z,45.10
2017-04-15T10:40:20.342Z,44.40
2017-04-15T10:41:20.118Z,44.70
2017-04-15T10:42:20.586Z,44.90
2017-04-15T10:43:20.342Z,44.90
2017-04-15T10:44:20.078Z,45.60
2017-04-15T10:45:19.886Z,44.30
2017-04-15T10:46:20.142Z,44.50
2017-04-15T10:47:19.914Z,45.20
2017-04-15T10:48:19.868Z,45.90
2017-04-15T10:49:19.747Z,46.10
2017-04-15T10:50:19.498Z,46.00
2017-04-15T10:51:19.287Z,46.20
2017-04-15T10:52:19.046Z,45.90
2017-04-15T10:53:18.806Z,46.40
2017-04-15T10:54:18.594Z,46.40
2017-04-15T10:55:18.366Z,47.20
2017-04-15T10:56:18.139Z,47.40
2017-04-15T10:57:17.902Z,48.00
2017-04-15T10:58:17.650Z,48.60
2017-04-15T10:59:17.442Z,48.80
2017-04-15T11:00:17.838Z,48.30
2017-04-15T11:01:17.574Z,48.30
2017-04-15T11:02:18.522Z,48.40
2017-04-15T11:03:18.242Z,48.00
2017-04-15T11:04:18.208Z,48.10
2017-04-15T11:05:18.714Z,47.40
2017-04-15T11:06:18.479Z,47.40
2017-04-15T11:07:18.230Z,47.60
2017-04-15T11:08:18.442Z,47.30
2017-04-15T11:09:19.006Z,47.70
2017-04-15T11:10:18.823Z,47.60
2017-04-15T11:11:18.610Z,47.80
2017-04-15T11:12:18.386Z,47.20
2017-04-15T11:13:18.177Z,47.30
2017-04-15T11:14:17.970Z,46.80
2017-04-15T11:15:18.501Z,46.90
2017-04-15T11:16:18.379Z,46.80
2017-04-15T11:17:18.178Z,46.00
2017-04-15T11:18:17.975Z,45.50
2017-04-15T11:19:18.222Z,46.20
2017-04-15T11:20:17.986Z,46.80
2017-04-15T11:21:18.826Z,45.70
2017-04-15T11:22:18.602Z,44.60
2017-04-15T11:23:18.706Z,44.40
2017-04-15T11:24:18.506Z,44.20
2017-04-15T11:25:18.279Z,44.90
2017-04-15T11:26:18.029Z,45.10
2017-04-15T11:27:17.850Z,45.70
2017-04-15T11:28:18.362Z,45.50
2017-04-15T11:29:18.294Z,46.30
2017-04-15T11:30:18.122Z,46.20
2017-04-15T11:31:17.889Z,47.40
2017-04-15T11:32:17.689Z,46.20
2017-04-15T11:33:17.474Z,47.10
2017-04-15T11:34:17.985Z,47.80
2017-04-15T11:35:17.766Z,46.70
2017-04-15T11:36:17.542Z,46.90
2017-04-15T11:37:17.361Z,47.30
2017-04-15T11:38:17.153Z,46.90
2017-04-15T11:39:16.946Z,47.10
2017-04-15T11:40:16.718Z,47.40
2017-04-15T11:41:16.477Z,47.80
2017-04-15T11:42:16.253Z,47.40
2017-04-15T11:43:16.029Z,47.30
2017-04-15T11:44:15.778Z,47.50
2017-04-15T11:45:15.538Z,46.90
2017-04-15T11:46:15.337Z,46.70
2017-04-15T11:47:15.089Z,45.60
2017-04-15T11:48:14.853Z,46.10
2017-04-15T11:49:14.631Z,45.70
2017-04-15T11:50:14.389Z,45.00
2017-04-15T11:51:14.151Z,45.00
2017-04-15T11:52:13.937Z,44.80
2017-04-15T11:53:13.722Z,45.10
2017-04-15T11:54:14.869Z,45.30
2017-04-15T11:55:14.637Z,45.80
2017-04-15T11:56:14.522Z,45.10
2017-04-15T11:57:14.294Z,45.00
2017-04-15T11:58:14.057Z,44.70
2017-04-15T11:59:14.557Z,44.40
2017-04-15T12:00:14.337Z,43.70
2017-04-15T12:01:14.110Z,43.70
2017-04-15T12:02:13.925Z,43.50
2017-04-15T12:03:13.886Z,42.70
2017-04-15T12:04:14.417Z,42.70
2017-04-15T12:05:14.177Z,42.60
2017-04-15T12:06:14.033Z,43.20
2017-04-15T12:07:13.885Z,43.30
2017-04-15T12:08:14.433Z,43.40
2017-04-15T12:09:14.433Z,43.70
2017-04-15T12:10:14.230Z,43.40
2017-04-15T12:11:14.065Z,43.70
2017-04-15T12:12:13.797Z,44.30
2017-04-15T12:13:13.613Z,44.30
2017-04-15T12:14:13.401Z,43.80
2017-04-15T12:15:13.197Z,43.40
2017-04-15T12:16:12.985Z,42.40
2017-04-15T12:17:12.772Z,41.80
2017-04-15T12:18:12.550Z,42.00
2017-04-15T12:19:12.337Z,41.80
2017-04-15T12:20:12.149Z,42.00
2017-04-15T12:21:11.937Z,42.20
2017-04-15T12:22:11.709Z,41.80
2017-04-15T12:23:11.890Z,43.00
2017-04-15T12:24:11.797Z,42.90
2017-04-15T12:25:11.554Z,43.20
2017-04-15T12:27:17.837Z,43.50
2017-04-15T12:28:17.622Z,43.50
2017-04-15T12:29:18.201Z,44.50
2017-04-15T12:30:17.965Z,44.00
2017-04-15T12:31:17.793Z,44.20
2017-04-15T12:32:17.577Z,44.00
2017-04-15T12:33:17.354Z,44.20
2017-04-15T12:34:17.861Z,44.00
2017-04-15T12:35:17.621Z,43.90
2017-04-15T12:36:17.410Z,44.10
2017-04-15T12:37:17.213Z,44.30
2017-04-15T12:38:16.989Z,44.20
2017-04-15T12:39:17.489Z,44.20
2017-04-15T12:40:17.277Z,44.50
2017-04-15T12:41:17.049Z,44.60
2017-04-15T12:42:16.869Z,44.90
2017-04-15T12:43:16.653Z,45.10
2017-04-15T12:44:16.453Z,45.30
2017-04-15T12:45:16.229Z,45.50
2017-04-15T12:46:16.025Z,45.40
2017-04-15T12:47:15.833Z,45.30
2017-04-15T12:48:15.636Z,45.70
2017-04-15T12:49:15.402Z,45.20
2017-04-15T12:50:15.197Z,44.90
2017-04-15T12:52:14.953Z,45.50
2017-04-15T12:53:15.122Z,45.50
2017-04-15T12:54:15.277Z,45.40
2017-04-15T12:55:15.061Z,44.30
2017-04-15T12:56:14.869Z,44.80
2017-04-15T12:57:14.644Z,45.10
2017-04-15T12:58:14.397Z,44.80
2017-04-15T12:59:14.170Z,45.10
2017-04-15T13:00:13.928Z,44.20
2017-04-15T13:01:14.308Z,43.50